Time;durP1;ratioP1;P1;durP2;ratioP2;P2;SDS_P1;SDS_P2;PMS_P1;PMS_P2;Temp;Humidity;BMP_temperature;BMP_pressure;BME280_temperature;BME280_humidity;BME280_pressure;Samples;Min_cycle;Max_cycle;Signal;HPM_P1;HPM_P2
2021/11/06 03:05:10;;;;;;;14.30;7.00;;;6.00;99.90;;;2.33;100.00;102464.06;2563576;30;137630;-38
2021/11/06 03:07:38;;;;;;;20.30;8.60;;;4.20;99.90;;;2.34;100.00;102460.41;2569295;30;138305;-38
2021/11/06 03:10:09;;;;;;;17.90;8.50;;;4.20;99.90;;;2.37;100.00;102466.41;2568273;30;138237;-38
2021/11/06 03:12:37;;;;;;;17.95;8.77;;;4.20;99.90;;;2.34;100.00;102455.84;2569658;30;139134;-38
2021/11/06 03:15:06;;;;;;;19.90;9.80;;;4.20;99.90;;;2.34;100.00;102458.56;2567904;30;140466;-38
2021/11/06 03:17:34;;;;;;;17.58;8.90;;;4.20;99.90;;;2.33;100.00;102464.06;2569347;30;139129;-38
2021/11/06 03:20:06;;;;;;;19.88;9.75;;;4.20;99.90;;;2.35;100.00;102462.13;2568954;30;137269;-38
2021/11/06 03:22:33;;;;;;;20.73;9.75;;;4.20;99.90;;;2.37;100.00;102455.63;2570061;30;138125;-38
2021/11/06 03:25:03;;;;;;;18.63;10.30;;;4.20;99.90;;;2.41;100.00;102458.94;2569286;30;137657;-38
2021/11/06 03:27:30;;;;;;;23.52;10.50;;;4.20;99.90;;;2.44;100.00;102461.41;2568768;30;138313;-38
2021/11/06 03:29:57;;;;;;;18.50;9.60;;;4.30;99.90;;;2.39;100.00;102460.91;2568324;30;137601;-38
2021/11/06 03:32:25;;;;;;;21.90;9.77;;;4.20;99.90;;;2.33;100.00;102467.63;2567607;30;139302;-38
2021/11/06 03:34:53;;;;;;;24.42;10.38;;;4.20;99.90;;;2.29;100.00;102466.13;2570364;30;137033;-38
2021/11/06 03:37:20;;;;;;;19.80;10.20;;;4.20;99.90;;;2.30;100.00;102470.53;2566159;30;138630;-38
2021/11/06 03:39:48;;;;;;;18.77;8.93;;;4.20;99.90;;;2.29;100.00;102464.31;2569207;30;136946;-38
2021/11/06 03:42:15;;;;;;;20.40;9.07;;;4.10;99.90;;;2.28;100.00;102464.41;2569240;30;137272;-38
2021/11/06 03:44:43;;;;;;;21.45;10.00;;;4.10;99.90;;;2.26;100.00;102466.38;2569703;30;137621;-38
2021/11/06 03:47:11;;;;;;;20.70;9.55;;;4.10;99.90;;;2.26;100.00;102463.69;2568907;30;138872;-38
2021/11/06 03:49:38;;;;;;;19.10;9.13;;;4.10;99.90;;;2.24;100.00;102471.03;2568386;30;137465;-38
2021/11/06 03:52:06;;;;;;;22.85;9.00;;;4.10;99.90;;;2.23;100.00;102467.44;2570681;30;138498;-38
2021/11/06 03:54:34;;;;;;;;;;;4.10;99.90;;;2.22;100.00;102462.19;2568737;30;137498;-38
2021/11/06 03:57:01;;;;;;;20.98;8.38;;;4.10;99.90;;;2.22;100.00;102457.66;2568880;30;138330;-38
2021/11/06 03:59:29;;;;;;;16.13;8.00;;;4.10;99.90;;;2.25;100.00;102467.34;2570511;30;137069;-38
2021/11/06 04:01:56;;;;;;;19.33;9.13;;;4.10;99.90;;;2.26;100.00;102463.69;2569557;30;137139;-38
2021/11/06 04:04:24;;;;;;;22.40;8.60;;;4.10;99.90;;;2.31;100.00;102469.56;2568910;30;137164;-38
2021/11/06 04:06:52;;;;;;;15.82;8.75;;;4.10;99.90;;;2.30;100.00;102468.72;2569146;30;137381;-38
2021/11/06 04:09:19;;;;;;;15.43;8.43;;;4.20;99.90;;;2.30;100.00;102467.84;2569836;30;136699;-38
2021/11/06 04:11:47;;;;;;;19.58;8.68;;;4.10;99.90;;;2.30;100.00;102467.84;2568388;30;138111;-38
2021/11/06 04:14:14;;;;;;;18.17;8.50;;;4.10;99.90;;;2.33;100.00;102469.47;2567065;30;138440;-38
2021/11/06 04:16:42;;;;;;;23.48;8.75;;;4.20;99.90;;;2.35;100.00;102475.59;2570679;30;138644;-38
2021/11/06 04:19:10;;;;;;;17.52;8.80;;;4.20;99.90;;;2.36;100.00;102466.53;2568828;30;137470;-38
2021/11/06 04:21:38;;;;;;;15.98;7.63;;;4.20;99.90;;;2.34;100.00;102469.31;2566472;30;138743;-38
2021/11/06 04:24:06;;;;;;;17.27;8.18;;;4.20;99.90;;;2.31;100.00;102466.88;2569702;30;136690;-38
2021/11/06 04:26:34;;;;;;;;;;;4.20;99.90;;;2.34;100.00;102469.31;2570759;30;139215;-38
2021/11/06 04:29:02;;;;;;;19.17;7.82;;;4.20;99.90;;;2.36;100.00;102464.69;2569802;30;138014;-38
2021/11/06 04:31:30;;;;;;;14.10;7.25;;;4.20;99.90;;;2.40;100.00;102470.69;2569429;30;138621;-38
2021/11/06 04:33:57;;;;;;;19.85;8.68;;;4.20;99.90;;;2.39;100.00;102472.56;2566013;30;137523;-38
2021/11/06 04:36:25;;;;;;;14.30;6.93;;;4.20;99.90;;;2.40;100.00;102468.00;2571269;30;139164;-38
2021/11/06 04:38:52;;;;;;;13.82;7.07;;;4.20;99.90;;;2.37;100.00;102468.25;2568297;30;137633;-38
2021/11/06 04:41:20;;;;;;;15.27;7.32;;;4.20;99.90;;;2.26;100.00;102459.16;2569258;30;136688;-38
2021/11/06 04:43:48;;;;;;;16.83;7.90;;;4.20;99.90;;;2.30;100.00;102465.16;2567033;30;137461;-38
2021/11/06 04:46:16;;;;;;;12.38;6.75;;;4.20;99.90;;;2.27;100.00;102470.78;2570100;30;138386;-38
2021/11/06 04:48:43;;;;;;;14.25;7.38;;;4.10;99.90;;;2.23;100.00;102466.59;2569742;30;137623;-38
2021/11/06 04:51:11;;;;;;;17.73;7.35;;;4.10;99.90;;;2.25;100.00;102465.50;2568476;30;139118;-38
2021/11/06 04:53:38;;;;;;;14.05;6.72;;;4.10;99.90;;;2.23;100.00;102463.91;2567639;30;137546;-38
2021/11/06 04:56:06;;;;;;;12.20;6.45;;;4.10;99.90;;;2.22;100.00;102464.91;2569258;30;137383;-38
2021/11/06 04:58:33;;;;;;;13.48;6.93;;;4.10;99.90;;;2.19;100.00;102457.06;2566221;30;137056;-38
2021/11/06 05:01:01;;;;;;;14.90;7.03;;;4.10;99.90;;;2.17;100.00;102448.22;2569609;30;138286;-38
2021/11/06 05:03:28;;;;;;;15.25;7.22;;;4.00;99.90;;;2.18;100.00;102456.19;2569479;30;138432;-38
2021/11/06 05:05:56;;;;;;;15.95;7.82;;;4.00;99.90;;;2.21;100.00;102455.94;2571093;30;138239;-38
2021/11/06 05:08:24;;;;;;;;;;;4.10;99.90;;;2.22;100.00;102462.19;2570153;30;138437;-38
2021/11/06 05:10:52;;;;;;;14.77;6.78;;;4.10;99.90;;;2.19;100.00;102465.97;2568674;30;138618;-38
2021/11/06 05:13:20;;;;;;;15.77;6.78;;;4.10;99.90;;;2.21;100.00;102465.88;2569516;30;138802;-38
2021/11/06 05:15:47;;;;;;;;;;;4.10;99.90;;;2.25;100.00;102461.97;2567418;30;137392;-38
2021/11/06 05:18:17;;;;;;;14.65;6.30;;;4.10;99.90;;;2.34;100.00;102463.09;2570310;30;137381;-38
2021/11/06 05:20:45;;;;;;;15.70;7.68;;;4.10;99.90;;;2.34;100.00;102455.84;2567185;30;139142;-38
2021/11/06 05:23:14;;;;;;;14.88;6.95;;;4.20;99.90;;;2.32;100.00;102451.59;2568801;30;137135;-38
2021/11/06 05:25:44;;;;;;;16.00;8.30;;;4.20;99.90;;;2.40;100.00;102457.22;2569748;30;138856;-38
2021/11/06 05:28:15;;;;;;;14.93;7.28;;;4.20;99.90;;;2.44;100.00;102454.19;2569182;30;138752;-38
2021/11/06 05:30:43;;;;;;;16.77;7.72;;;4.20;99.90;;;2.50;100.00;102447.44;2568724;30;138680;-38
2021/11/06 05:33:12;;;;;;;16.70;8.00;;;4.30;99.90;;;2.51;100.00;102453.72;2566965;30;136970;-37
2021/11/06 05:35:40;;;;;;;14.10;7.97;;;4.30;99.90;;;2.48;100.00;102454.78;2565702;30;138216;-38
2021/11/06 05:38:08;;;;;;;15.48;7.22;;;4.30;99.90;;;2.49;100.00;102455.66;2568367;30;138198;-38
2021/11/06 05:40:36;;;;;;;15.80;7.72;;;4.30;99.90;;;2.48;100.00;102451.25;2567906;30;138285;-38
2021/11/06 05:43:04;;;;;;;16.85;8.35;;;4.30;99.90;;;2.45;100.00;102455.03;2569854;30;138294;-38
2021/11/06 05:45:31;;;;;;;19.45;8.45;;;4.30;99.90;;;2.42;100.00;102464.22;2570408;30;137509;-38
2021/11/06 05:47:59;;;;;;;15.65;7.78;;;4.30;99.90;;;2.40;100.00;102465.31;2569512;30;136750;-38
2021/11/06 05:50:27;;;;;;;15.10;7.55;;;4.20;99.90;;;2.35;100.00;102457.56;2570100;30;138421;-38
2021/11/06 05:52:54;;;;;;;;;;;4.20;99.90;;;2.28;100.00;102456.34;2570269;30;138210;-38
2021/11/06 05:55:22;;;;;;;17.50;6.95;;;4.20;99.90;;;2.23;100.00;102459.38;2571752;30;138332;-38
2021/11/06 05:57:50;;;;;;;16.02;7.28;;;4.10;99.90;;;2.19;100.00;102451.66;2571341;30;138052;-38
2021/11/06 06:00:20;;;;;;;20.10;7.95;;;4.10;99.90;;;2.18;100.00;102461.56;2570177;30;138162;-38
2021/11/06 06:02:48;;;;;;;14.75;7.07;;;4.10;99.90;;;2.12;100.00;102452.13;2570204;30;136745;-38
2021/11/06 06:05:16;;;;;;;;;;;4.00;99.90;;;2.10;100.00;102447.84;2569451;30;139337;-38
2021/11/06 06:07:43;;;;;;;16.67;7.82;;;4.00;99.90;;;2.07;100.00;102448.91;2569541;30;137238;-38
2021/11/06 06:10:15;;;;;;;17.45;7.85;;;3.90;99.90;;;2.03;100.00;102458.19;2569310;30;138229;-38
2021/11/06 06:12:44;;;;;;;15.15;7.28;;;3.90;99.90;;;2.01;100.00;102460.16;2568213;30;138025;-38
2021/11/06 06:15:12;;;;;;;20.52;8.43;;;3.90;99.90;;;2.01;100.00;102470.91;2569831;30;138219;-41
2021/11/06 06:17:40;;;;;;;13.55;6.53;;;3.90;99.90;;;2.01;100.00;102471.78;2570284;30;137549;-38
2021/11/06 06:20:09;;;;;;;17.70;7.63;;;3.90;99.90;;;2.00;100.00;102475.47;2571566;30;137599;-38
2021/11/06 06:22:38;;;;;;;13.90;7.30;;;3.80;99.90;;;2.00;100.00;102474.59;2568795;30;137644;-38
2021/11/06 06:25:08;;;;;;;18.52;7.95;;;3.90;99.90;;;2.02;100.00;102483.41;2568470;30;138260;-38
2021/11/06 06:27:37;;;;;;;17.52;7.75;;;3.90;99.90;;;2.05;100.00;102479.63;2568356;30;137042;-39
2021/11/06 06:30:10;;;;;;;13.25;7.22;;;3.90;99.90;;;2.10;100.00;102480.16;2570880;30;138572;-38
2021/11/06 06:32:38;;;;;;;15.48;8.13;;;3.90;99.90;;;2.14;100.00;102482.50;2571415;30;137555;-38
2021/11/06 06:35:09;;;;;;;15.13;7.13;;;4.00;99.90;;;2.20;100.00;102494.63;2569125;30;137176;-38
2021/11/06 06:37:37;;;;;;;15.23;7.60;;;4.00;99.90;;;2.26;100.00;102490.63;2570603;30;137618;-38
2021/11/06 06:40:08;;;;;;;22.38;8.43;;;4.10;99.90;;;2.33;100.00;102488.31;2569880;30;137258;-41
2021/11/06 06:42:36;;;;;;;18.08;7.90;;;4.10;99.90;;;2.37;100.00;102489.78;2569034;30;137169;-40
2021/11/06 06:45:05;;;;;;;16.92;7.60;;;4.10;99.90;;;2.44;100.00;102482.94;2568686;30;137951;-41
2021/11/06 06:47:33;;;;;;;19.17;8.68;;;4.20;99.90;;;2.53;100.00;102481.38;2569207;30;137668;-41
2021/11/06 06:50:03;;;;;;;21.33;8.68;;;4.30;99.90;;;2.61;100.00;102475.41;2568881;30;139369;-41
2021/11/06 06:52:30;;;;;;;20.33;9.35;;;4.30;99.90;;;2.65;100.00;102466.97;2569566;30;136904;-38
2021/11/06 06:54:58;;;;;;;17.75;9.20;;;4.40;99.90;;;2.72;100.00;102475.41;2568505;30;139174;-38
2021/11/06 06:57:26;;;;;;;17.95;9.40;;;4.50;99.90;;;2.83;100.00;102471.88;2569971;30;138870;-38
2021/11/06 06:59:53;;;;;;;21.15;8.57;;;4.50;99.90;;;2.86;100.00;102472.50;2568127;30;138606;-38
2021/11/06 07:02:21;;;;;;;23.15;9.50;;;4.60;99.90;;;2.93;100.00;102477.41;2571137;30;136714;-38
2021/11/06 07:04:48;;;;;;;19.73;9.48;;;4.70;99.90;;;2.94;100.00;102480.00;2571495;30;138604;-38
2021/11/06 07:07:16;;;;;;;18.52;7.97;;;4.70;99.90;;;2.98;100.00;102473.38;2569864;30;138387;-38
2021/11/06 07:09:43;;;;;;;18.52;9.32;;;4.70;99.90;;;3.00;100.00;102479.50;2566811;30;138799;-38
2021/11/06 07:12:14;;;;;;;20.40;9.07;;;4.70;99.90;;;2.98;100.00;102478.78;2570607;30;136739;-38
2021/11/06 07:14:42;;;;;;;25.02;10.50;;;4.80;99.90;;;3.02;100.00;102485.63;2567192;30;138224;-38
2021/11/06 07:17:10;;;;;;;;;;;4.80;99.90;;;3.05;100.00;102494.47;2569231;30;137858;-38
2021/11/06 07:19:37;;;;;;;21.48;9.50;;;4.80;99.90;;;3.10;100.00;102494.94;2572067;30;139168;-38
2021/11/06 07:22:06;;;;;;;20.58;7.82;;;4.80;99.90;;;3.15;100.00;102493.59;2568460;30;137437;-38
2021/11/06 07:24:35;;;;;;;16.45;7.93;;;4.90;99.90;;;3.23;100.00;102494.81;2565290;30;137880;-38
2021/11/06 07:27:08;;;;;;;19.92;9.60;;;4.90;99.90;;;3.28;100.00;102500.69;2568997;30;137586;-38
2021/11/06 07:29:37;;;;;;;18.42;9.07;;;5.00;99.90;;;3.34;100.00;102494.84;2568393;30;138156;-38
2021/11/06 07:32:06;;;;;;;19.13;8.75;;;5.00;99.90;;;3.49;100.00;102510.75;2570322;30;136880;-38
2021/11/06 07:34:34;;;;;;;15.55;9.25;;;5.10;99.90;;;3.54;100.00;102512.09;2568763;30;138471;-38
2021/11/06 07:37:01;;;;;;;18.17;9.30;;;5.20;99.90;;;3.69;100.00;102526.19;2570959;30;137452;-38
2021/11/06 07:39:29;;;;;;;20.83;10.23;;;5.30;99.90;;;3.81;100.00;102518.94;2569338;30;138337;-38
2021/11/06 07:41:59;;;;;;;20.27;8.90;;;5.40;99.90;;;3.94;100.00;102518.78;2565989;30;138686;-38
2021/11/06 07:44:27;;;;;;;20.60;9.65;;;5.50;99.90;;;4.11;100.00;102517.38;2568779;30;138358;-38
2021/11/06 07:46:55;;;;;;;;;;;5.60;99.90;;;4.24;100.00;102525.31;2569984;30;138142;-38
2021/11/06 07:49:22;;;;;;;21.20;9.35;;;5.70;99.90;;;4.38;100.00;102523.31;2570163;30;139072;-38
2021/11/06 07:51:50;;;;;;;17.55;9.10;;;5.90;99.90;;;4.49;100.00;102514.25;2568344;30;137863;-38
2021/11/06 07:54:18;;;;;;;20.73;9.75;;;6.00;99.90;;;4.61;100.00;102516.78;2568036;30;138473;-37
2021/11/06 07:56:45;;;;;;;;;;;6.10;99.90;;;4.74;100.00;102508.47;2571468;30;136763;-38
2021/11/06 07:59:13;;;;;;;20.50;8.93;;;6.20;99.90;;;4.77;100.00;102501.94;2569203;30;138456;-38
2021/11/06 08:01:40;;;;;;;22.00;10.02;;;6.30;99.90;;;4.90;100.00;102496.31;2568762;30;137525;-37
2021/11/06 08:04:08;;;;;;;21.92;9.82;;;6.40;99.90;;;5.02;100.00;102502.50;2568791;30;139324;-38
2021/11/06 08:06:37;;;;;;;21.30;9.13;;;6.50;99.90;;;5.10;100.00;102509.97;2568798;30;138229;-38
2021/11/06 08:09:05;;;;;;;21.10;9.05;;;6.60;99.90;;;5.20;100.00;102499.19;2569314;30;137467;-38
2021/11/06 08:11:33;;;;;;;19.10;8.20;;;6.70;99.90;;;5.26;100.00;102502.19;2568931;30;136901;-38
2021/11/06 08:14:00;;;;;;;14.35;7.68;;;6.70;99.90;;;5.37;100.00;102500.38;2565221;30;138346;-38
2021/11/06 08:16:28;;;;;;;16.67;8.45;;;6.80;99.90;;;5.46;100.00;102500.44;2568909;30;138045;-38
2021/11/06 08:18:56;;;;;;;16.95;8.13;;;6.90;99.90;;;5.57;100.00;102493.19;2567889;30;138289;-38
2021/11/06 08:21:23;;;;;;;15.07;7.55;;;7.00;99.90;;;5.64;100.00;102497.03;2567924;30;136670;-38
2021/11/06 08:23:51;;;;;;;15.15;8.07;;;7.10;99.90;;;5.67;100.00;102490.50;2567767;30;137926;-38
2021/11/06 08:26:18;;;;;;;15.48;7.47;;;7.10;99.90;;;5.70;100.00;102488.38;2567879;30;137385;-38
2021/11/06 08:28:46;;;;;;;15.73;7.65;;;7.10;99.90;;;5.75;100.00;102487.94;2568293;30;138587;-38
2021/11/06 08:31:13;;;;;;;14.55;7.30;;;7.20;99.90;;;5.83;99.66;102484.53;2568834;30;137097;-38
2021/11/06 08:33:41;;;;;;;15.07;8.10;;;7.30;99.90;;;5.90;100.00;102475.72;2567854;30;137684;-38
2021/11/06 08:36:08;;;;;;;14.27;6.78;;;7.30;99.90;;;5.93;99.04;102485.41;2568089;30;137631;-38
2021/11/06 08:38:36;;;;;;;13.40;6.90;;;7.40;99.90;;;5.96;98.74;102490.53;2569749;30;139299;-38
2021/11/06 08:41:04;;;;;;;;;;;7.40;99.90;;;6.04;98.78;102485.31;2568644;30;137532;-38
2021/11/06 08:43:33;;;;;;;12.13;6.35;;;7.50;99.90;;;6.07;98.81;102486.88;2569454;30;136860;-38
2021/11/06 08:46:02;;;;;;;15.90;7.00;;;7.50;99.90;;;6.15;99.50;102481.59;2567960;30;138242;-38
2021/11/06 08:48:30;;;;;;;12.48;6.65;;;7.60;99.90;;;6.21;98.12;102484.75;2571471;30;137275;-38
2021/11/06 08:50:59;;;;;;;14.23;7.38;;;7.60;99.90;;;6.28;98.56;102485.88;2568771;30;136660;-38
2021/11/06 08:53:27;;;;;;;12.63;6.43;;;7.70;99.90;;;6.30;97.80;102470.31;2569461;30;139024;-38
2021/11/06 08:55:54;;;;;;;13.45;6.43;;;7.80;99.90;;;6.43;97.49;102479.03;2565507;30;136862;-38
2021/11/06 08:58:22;;;;;;;12.23;5.95;;;7.90;99.90;;;6.56;97.16;102483.28;2569361;30;138343;-38
2021/11/06 09:00:52;;;;;;;13.30;6.10;;;8.00;99.90;;;6.74;97.28;102484.25;2568851;30;137635;-38
2021/11/06 09:03:24;;;;;;;10.30;6.10;;;8.10;99.90;;;6.93;94.96;102493.34;2573942;30;138972;-40
2021/11/06 09:05:54;;;;;;;12.32;5.90;;;8.30;99.90;;;7.04;95.27;102485.00;2567846;30;136816;-40
2021/11/06 09:08:30;;;;;;;11.35;5.53;;;8.40;99.90;;;7.09;95.22;102486.41;2565788;30;139290;-40
2021/11/06 09:11:02;;;;;;;9.93;5.50;;;8.50;99.90;;;7.14;94.83;102486.81;2567278;30;137537;-40
2021/11/06 09:13:31;;;;;;;10.63;5.30;;;8.50;99.90;;;7.15;94.50;102483.09;2567640;30;137371;-40
2021/11/06 09:16:08;;;;;;;8.25;4.85;;;8.60;99.90;;;7.23;93.44;102490.50;2564694;30;138371;-40
2021/11/06 09:18:40;;;;;;;9.50;4.95;;;8.60;99.90;;;7.30;93.95;102481.63;2567836;30;138552;-40
2021/11/06 09:21:10;;;;;;;8.73;4.68;;;8.70;99.90;;;7.41;92.43;102490.56;2568239;30;137573;-40
2021/11/06 09:23:39;;;;;;;9.45;4.78;;;8.80;99.90;;;7.44;92.06;102498.44;2567377;30;138891;-40
2021/11/06 09:26:08;;;;;;;9.70;4.20;;;8.90;99.90;;;7.31;90.43;102486.03;2565103;30;138289;-40
2021/11/06 09:28:42;;;;;;;7.35;3.92;;;8.90;99.90;;;7.29;89.88;102490.78;2567586;30;138204;-40
2021/11/06 09:31:16;;;;;;;7.68;3.92;;;8.80;99.90;;;7.27;90.37;102500.94;2566260;30;136741;-40
2021/11/06 09:33:46;;;;;;;8.02;4.50;;;8.80;99.90;;;7.25;91.17;102494.81;2567717;30;138543;-40
2021/11/06 09:36:14;;;;;;;7.13;4.00;;;8.70;99.90;;;7.23;90.30;102491.38;2568998;30;137725;-40
2021/11/06 09:38:42;;;;;;;;;;;8.70;99.90;;;7.25;91.17;102493.94;2566324;30;138262;-40
2021/11/06 09:41:11;;;;;;;7.05;3.92;;;8.70;99.90;;;7.26;90.24;102499.22;2564896;30;137030;-40
2021/11/06 09:43:40;;;;;;;7.63;3.60;;;8.70;99.90;;;7.33;90.22;102494.06;2568565;30;138515;-40
2021/11/06 09:46:09;;;;;;;8.40;4.05;;;8.70;99.90;;;7.35;89.68;102494.75;2567422;30;136849;-40
2021/11/06 09:48:42;;;;;;;7.32;3.85;;;8.80;99.90;;;7.43;89.16;102491.31;2568361;30;138575;-40
2021/11/06 09:51:14;;;;;;;8.43;3.58;;;8.80;99.90;;;7.57;89.22;102496.22;2568722;30;137730;-41
2021/11/06 09:53:46;;;;;;;8.63;3.90;;;8.90;99.90;;;7.73;88.62;102497.41;2567455;30;138465;-39
2021/11/06 09:56:26;;;;;;;7.80;4.20;;;9.10;99.90;;;7.86;88.10;102487.00;2567686;30;137580;-40
2021/11/06 09:59:00;;;;;;;5.75;3.10;;;9.20;99.90;;;7.97;87.50;102479.66;2565777;30;138197;-40
2021/11/06 10:01:31;;;;;;;6.18;3.22;;;9.30;99.90;;;8.16;86.90;102487.66;2567094;30;137681;-40
2021/11/06 10:04:00;;;;;;;8.35;3.50;;;9.50;99.90;;;8.37;87.81;102485.63;2565620;30;138414;-40
2021/11/06 10:06:29;;;;;;;7.75;3.90;;;9.60;99.90;;;8.46;84.95;102484.69;2568024;30;137331;-40
2021/11/06 10:08:57;;;;;;;6.97;3.55;;;9.70;99.90;;;8.56;86.96;102479.19;2568198;30;138449;-40
2021/11/06 10:11:31;;;;;;;6.50;3.88;;;9.80;99.90;;;8.65;86.79;102480.94;2568249;30;137087;-40
2021/11/06 10:14:07;;;;;;;7.80;3.33;;;9.90;99.90;;;8.73;85.87;102482.88;2565214;30;137427;-40
2021/11/06 10:16:40;;;;;;;7.80;3.45;;;10.00;99.90;;;8.86;84.38;102482.44;2568667;30;138603;-40
2021/11/06 10:19:15;;;;;;;7.15;3.67;;;10.10;99.90;;;8.99;83.31;102482.84;2566849;30;137289;-40
2021/11/06 10:21:50;;;;;;;6.95;3.90;;;10.20;99.90;;;9.24;84.79;102484.88;2568769;30;136835;-40
2021/11/06 10:24:46;;;;;;;5.82;3.17;;;10.40;99.90;;;9.45;83.81;102470.81;2567000;30;138026;-40
2021/11/06 10:27:28;;;;;;;6.82;3.58;;;10.60;99.90;;;9.49;82.44;102461.28;2567509;30;137079;-40
2021/11/06 10:30:05;;;;;;;8.40;3.30;;;10.70;99.90;;;9.46;82.25;102464.34;2567717;30;138155;-40
2021/11/06 10:32:34;;;;;;;6.68;3.20;;;10.80;99.90;;;9.44;81.91;102459.09;2569554;30;137642;-40
2021/11/06 10:35:11;;;;;;;7.20;3.10;;;10.80;99.90;;;9.47;82.03;102460.59;2565544;30;137402;-40
2021/11/06 10:37:40;;;;;;;4.40;2.80;;;10.80;99.90;;;9.48;82.06;102455.00;2568621;30;137413;-40
2021/11/06 10:40:09;;;;;;;6.35;3.30;;;10.80;99.90;;;9.44;80.78;102452.75;2567160;30;138363;-40
2021/11/06 10:42:53;;;;;;;6.35;3.03;;;10.80;99.90;;;9.49;82.44;102447.66;2568293;30;137836;-40
2021/11/06 10:45:26;;;;;;;5.80;3.50;;;10.80;99.90;;;9.55;81.01;102449.75;2567049;30;137346;-40
2021/11/06 10:48:03;;;;;;;6.50;3.33;;;10.90;99.90;;;9.58;80.16;102438.50;2567699;30;137609;-40
2021/11/06 10:50:48;;;;;;;4.93;2.63;;;10.90;99.90;;;9.69;81.29;102437.34;2567015;30;138340;-40
2021/11/06 10:53:50;;;;;;;7.00;3.42;;;11.00;99.90;;;9.87;80.03;102444.50;2568255;30;137298;-40
2021/11/06 10:56:18;;;;;;;5.00;2.95;;;11.10;99.90;;;10.02;80.41;102442.84;2565709;30;138547;-40
2021/11/06 10:58:49;;;;;;;5.80;3.10;;;11.20;99.90;;;10.16;78.79;102433.13;2569047;30;137244;-40
2021/11/06 11:01:28;;;;;;;6.15;3.05;;;11.40;99.90;;;10.26;79.74;102423.91;2569079;30;137408;-40
2021/11/06 11:04:06;;;;;;;7.10;3.00;;;11.50;99.90;;;10.46;78.88;102419.84;2566178;30;137655;-40
2021/11/06 11:06:40;;;;;;;4.82;3.08;;;11.70;99.90;;;10.73;79.72;102427.78;2568766;30;137279;-40
2021/11/06 11:09:15;;;;;;;5.13;2.92;;;11.90;99.90;;;10.88;79.78;102427.94;2568145;30;137468;-40
2021/11/06 11:11:44;;;;;;;8.02;3.30;;;12.00;99.90;;;11.00;76.30;102421.06;2569438;30;138184;-40
2021/11/06 11:14:22;;;;;;;5.28;2.85;;;12.20;99.90;;;11.21;78.09;102416.91;2566599;30;137591;-40
2021/11/06 11:16:57;;;;;;;6.57;2.93;;;12.30;99.90;;;11.26;75.01;102414.47;2567826;30;137886;-40
2021/11/06 11:19:40;;;;;;;8.95;3.00;;;12.50;99.90;;;11.17;75.81;102410.91;2567965;30;136812;-40
2021/11/06 11:22:31;;;;;;;7.43;3.00;;;12.50;99.90;;;11.07;76.96;102397.47;2568762;30;138002;-40
2021/11/06 11:24:58;;;;;;;5.10;2.80;;;12.40;99.90;;;11.05;78.65;102395.97;2566882;30;137477;-40
2021/11/06 11:27:44;;;;;;;7.25;2.60;;;12.40;99.90;;;10.89;76.05;102403.19;2569584;30;138560;-40
2021/11/06 11:30:12;;;;;;;6.07;2.63;;;12.30;99.90;;;10.82;77.48;102391.28;2568713;30;136832;-40
2021/11/06 11:32:40;;;;;;;6.00;3.10;;;12.20;99.90;;;10.75;77.67;102384.81;2568355;30;138237;-40
2021/11/06 11:35:09;;;;;;;5.35;2.72;;;12.20;99.90;;;10.67;77.53;102382.09;2565850;30;137068;-40
2021/11/06 11:37:38;;;;;;;4.53;2.47;;;12.10;99.90;;;10.67;77.31;102384.81;2568085;30;138562;-40
2021/11/06 11:40:06;;;;;;;5.10;2.70;;;12.10;99.90;;;10.73;77.73;102371.34;2567291;30;137073;-40
2021/11/06 11:42:52;;;;;;;5.85;2.85;;;12.10;99.90;;;10.83;77.88;102373.00;2563492;38;138473;-40
2021/11/06 11:45:29;;;;;;;4.93;2.50;;;12.20;99.90;;;10.89;78.09;102358.66;2568502;30;137254;-41
2021/11/06 11:48:10;;;;;;;4.93;2.10;;;12.20;99.90;;;10.93;78.01;102366.31;2568270;30;138307;-40
2021/11/06 11:50:42;;;;;;;4.55;2.70;;;12.20;99.90;;;11.00;77.40;102357.38;2567664;30;136771;-40
2021/11/06 11:53:23;;;;;;;5.78;2.30;;;12.30;99.90;;;11.02;76.96;102361.66;2567808;30;137170;-40
2021/11/06 11:55:55;;;;;;;4.40;2.08;;;12.30;99.90;;;11.12;75.69;102353.25;2567935;30;136884;-40
2021/11/06 11:58:35;;;;;;;3.53;1.98;;;12.40;99.90;;;11.20;76.90;102346.91;2565675;30;138589;-40
2021/11/06 12:01:05;;;;;;;3.80;2.15;;;12.50;99.90;;;11.20;74.28;102342.28;2568999;30;136814;-40
2021/11/06 12:03:46;;;;;;;4.05;1.65;;;12.50;99.90;;;11.17;72.64;102330.88;2567794;30;138413;-40
2021/11/06 12:06:39;;;;;;;5.47;1.92;;;12.60;99.90;;;11.12;74.55;102338.72;2565196;30;137730;-40
2021/11/06 12:09:15;;;;;;;4.35;2.45;;;12.50;99.90;;;11.19;75.68;102320.63;2568582;30;139385;-40
2021/11/06 12:11:51;;;;;;;4.50;1.98;;;12.50;99.90;;;11.27;75.85;102317.81;2567745;30;137435;-40
2021/11/06 12:14:29;;;;;;;3.90;1.80;;;12.60;99.90;;;11.27;73.82;102308.75;2564620;30;139269;-40
2021/11/06 12:17:06;;;;;;;4.43;1.70;;;12.60;99.90;;;11.34;74.68;102310.59;2565746;30;138361;-40
2021/11/06 12:19:42;;;;;;;3.22;1.80;;;12.70;99.90;;;11.37;73.65;102306.66;2568558;30;138397;-40
2021/11/06 12:22:18;;;;;;;4.78;1.80;;;12.70;99.90;;;11.40;73.35;102305.44;2568022;30;137713;-40
2021/11/06 12:24:50;;;;;;;4.38;1.85;;;12.70;99.90;;;11.41;74.49;102301.69;2565597;30;139635;-40
2021/11/06 12:27:39;;;;;;;3.50;1.55;;;12.80;99.90;;;11.54;74.16;102306.50;2567299;30;138408;-40
2021/11/06 12:30:07;;;;;;;3.25;1.60;;;12.80;99.90;;;11.55;72.79;102295.41;2567785;30;139006;-40
2021/11/06 12:32:46;;;;;;;2.35;1.38;;;12.80;99.90;;;11.45;72.40;102287.47;2567205;30;137081;-40
2021/11/06 12:35:13;;;;;;;;;;;12.80;99.90;;;11.50;74.28;102303.31;2566549;30;138275;-39
2021/11/06 12:37:42;;;;;;;6.50;1.80;;;12.80;99.90;;;11.52;73.06;102291.16;2569135;30;137155;-40
2021/11/06 12:40:34;;;;;;;2.45;1.30;;;12.90;99.90;;;11.45;71.00;102303.84;2568663;30;137848;-40
2021/11/06 12:43:16;;;;;;;3.22;1.40;;;12.90;99.90;;;11.33;71.55;102291.66;2568315;30;137119;-40
2021/11/06 12:45:48;;;;;;;3.67;1.55;;;12.80;99.90;;;11.26;72.71;102287.94;2568187;30;138232;-40
2021/11/06 12:48:42;;;;;;;3.53;1.27;;;12.70;99.90;;;11.25;72.39;102281.63;2567982;30;137549;-40
2021/11/06 12:51:20;;;;;;;4.25;1.40;;;12.70;99.90;;;11.25;73.43;102280.78;2567697;30;137377;-40
2021/11/06 12:53:56;;;;;;;3.93;1.50;;;12.70;99.90;;;11.27;75.46;102285.03;2567952;30;136791;-40
2021/11/06 12:56:29;;;;;;;3.78;1.30;;;12.60;99.90;;;11.23;72.73;102272.78;2565977;30;138148;-40
2021/11/06 12:59:11;;;;;;;3.40;1.20;;;12.60;99.90;;;11.23;73.71;102275.50;2569489;30;137662;-39
2021/11/06 13:01:55;;;;;;;3.33;1.42;;;12.60;99.90;;;11.29;74.02;102271.22;2568983;30;137650;-40
2021/11/06 13:04:23;;;;;;;2.85;1.15;;;12.70;99.90;;;11.30;72.62;102262.81;2566772;30;137689;-40
2021/11/06 13:06:54;;;;;;;4.15;1.10;;;12.70;99.90;;;11.38;72.60;102264.63;2565776;30;139257;-40
2021/11/06 13:09:33;;;;;;;4.57;1.23;;;12.80;99.90;;;11.34;72.79;102255.94;2568502;30;137039;-40
2021/11/06 13:12:04;;;;;;;4.25;1.50;;;12.70;99.90;;;11.36;72.08;102256.59;2568701;30;138148;-40
2021/11/06 13:15:00;;;;;;;2.60;1.35;;;12.70;99.90;;;11.42;72.97;102254.19;2567074;30;137801;-40
2021/11/06 13:17:36;;;;;;;3.42;1.30;;;12.70;99.90;;;11.32;71.84;102252.53;2569448;30;138103;-40
2021/11/06 13:20:18;;;;;;;2.85;1.20;;;12.70;99.90;;;11.35;73.50;102245.88;2568835;30;136899;-40
2021/11/06 13:22:57;;;;;;;3.08;1.40;;;12.80;99.90;;;11.36;71.90;102242.94;2568310;30;137324;-40
2021/11/06 13:25:40;;;;;;;3.30;1.20;;;12.80;99.90;;;11.28;72.98;102244.91;2564830;30;136755;-40
2021/11/06 13:28:25;;;;;;;4.50;1.40;;;12.70;99.90;;;11.24;73.06;102241.69;2568395;30;137932;-40
2021/11/06 13:31:01;;;;;;;4.07;1.17;;;12.70;99.90;;;11.15;71.71;102238.16;2568323;30;136850;-40